Time;durP1;ratioP1;P1;durP2;ratioP2;P2;SDS_P1;SDS_P2;PMS_P1;PMS_P2;Temp;Humidity;BMP_temperature;BMP_pressure;BME280_temperature;BME280_humidity;BME280_pressure;Samples;Min_cycle;Max_cycle;Signal;HPM_P1;HPM_P2
2023/05/21 09:15:41;;;;;;;16.38;10.70;;;18.50;99.90;;;;;;6230459;22;20124;31
2023/05/21 09:18:09;;;;;;;16.90;11.35;;;18.50;99.90;;;;;;6165767;23;20026;-93
2023/05/21 09:20:46;;;;;;;15.52;10.95;;;18.70;99.90;;;;;;6167606;23;20442;-94
2023/05/21 09:23:16;;;;;;;17.85;10.90;;;18.80;99.90;;;;;;6165660;23;20537;-94
2023/05/21 09:25:50;;;;;;;17.92;11.55;;;18.90;99.90;;;;;;6172412;23;20009;-91
2023/05/21 09:28:25;;;;;;;17.48;10.98;;;19.00;99.90;;;;;;6220162;23;20004;-94
2023/05/21 09:30:54;;;;;;;21.27;13.88;;;19.10;99.90;;;;;;6221805;23;20019;-91
2023/05/21 09:33:28;;;;;;;14.57;11.93;;;19.10;99.90;;;;;;6197928;23;20500;-92
2023/05/21 09:35:55;;;;;;;15.18;12.18;;;19.20;99.90;;;;;;6197157;23;20012;-93
2023/05/21 09:38:24;;;;;;;17.15;12.48;;;19.30;99.90;;;;;;6197278;23;20035;-91
2023/05/21 09:40:58;;;;;;;15.32;12.23;;;19.70;99.90;;;;;;6197500;23;20074;-92
2023/05/21 09:43:32;;;;;;;;;;;19.70;99.90;;;;;;6198989;23;20012;-94
2023/05/21 09:46:00;;;;;;;15.18;12.95;;;19.80;99.90;;;;;;6196894;23;19946;-92
2023/05/21 09:48:42;;;;;;;17.30;12.75;;;19.90;99.90;;;;;;6197330;23;20008;-93
2023/05/21 09:51:15;;;;;;;17.08;13.05;;;19.80;99.90;;;;;;6197965;23;20012;-93
2023/05/21 09:53:50;;;;;;;18.25;14.02;;;19.70;99.90;;;;;;6197212;23;20004;-93
2023/05/21 09:56:30;;;;;;;17.55;14.05;;;20.00;99.90;;;;;;6198957;23;20012;-91
2023/05/21 09:59:00;;;;;;;21.52;14.35;;;20.30;99.90;;;;;;6197008;23;20388;-94
2023/05/21 10:26:48;;;;;;;21.05;19.05;;;21.80;99.90;;;;;;6272718;22;20097;-85
2023/05/21 10:29:15;;;;;;;22.40;19.52;;;21.90;99.90;;;;;;6251806;22;20429;-85
2023/05/21 10:31:48;;;;;;;21.83;19.90;;;21.90;99.90;;;;;;6251382;22;20023;-85
2023/05/21 10:34:15;;;;;;;21.33;19.42;;;21.70;99.90;;;;;;6251268;22;20014;-85
2023/05/21 10:36:43;;;;;;;20.30;18.58;;;21.30;99.90;;;;;;6221565;23;20026;-84
2023/05/21 10:39:13;;;;;;;21.50;19.80;;;21.40;99.90;;;;;;6242983;22;19999;-92
2023/05/21 10:41:51;;;;;;;21.88;20.08;;;21.50;99.90;;;;;;6237069;23;20027;-92
2023/05/21 10:44:43;;;;;;;22.13;19.83;;;21.60;99.90;;;;;;6247040;22;20016;-90
2023/05/21 10:47:31;;;;;;;20.95;19.02;;;21.40;99.90;;;;;;6246746;22;20087;-90
2023/05/21 10:50:33;;;;;;;21.45;19.52;;;21.20;99.90;;;;;;6247001;23;20070;-90
2023/05/21 10:53:21;;;;;;;20.60;18.98;;;21.10;99.90;;;;;;6223003;23;20100;-92
2023/05/21 10:56:14;;;;;;;22.27;20.42;;;21.00;99.90;;;;;;6222019;23;20103;-91
2023/05/21 10:59:08;;;;;;;19.83;18.27;;;21.20;99.90;;;;;;6221551;23;20015;-90
2023/05/21 11:01:38;;;;;;;20.90;19.30;;;21.30;99.90;;;;;;6222302;23;20012;-90
2023/05/21 11:04:05;;;;;;;20.83;19.13;;;21.30;99.90;;;;;;6222285;23;20031;-93
2023/05/21 11:06:31;;;;;;;21.75;19.50;;;21.50;99.90;;;;;;6247671;22;20083;-91
2023/05/21 11:09:18;;;;;;;21.48;19.95;;;21.80;99.90;;;;;;6247264;22;20077;-93
2023/05/21 11:12:26;;;;;;;21.88;19.75;;;22.00;99.90;;;;;;6201202;23;20504;-94
2023/05/21 11:14:57;;;;;;;21.52;19.42;;;21.50;99.90;;;;;;6105095;23;20009;-93
2023/05/21 11:17:40;;;;;;;21.13;19.15;;;21.30;99.90;;;;;;6134173;23;20002;-93
2023/05/21 11:20:12;;;;;;;22.20;19.95;;;21.40;99.90;;;;;;6128829;23;20018;-91
2023/05/21 11:22:40;;;;;;;20.95;18.98;;;21.40;99.90;;;;;;6125752;23;20037;-92
2023/05/21 11:25:07;;;;;;;21.23;19.17;;;21.60;99.90;;;;;;6102627;23;20375;-89
2023/05/21 11:27:43;;;;;;;22.02;19.65;;;21.70;99.90;;;;;;6126793;23;20021;-91
2023/05/21 11:30:21;;;;;;;20.95;19.20;;;21.60;99.90;;;;;;6126417;23;20020;-92
2023/05/21 11:33:29;;;;;;;21.70;19.67;;;21.40;99.90;;;;;;6130523;23;20436;-93
2023/05/21 11:35:58;;;;;;;22.75;20.42;;;21.40;99.90;;;;;;6109796;23;20006;-91
2023/05/21 11:39:42;;;;;;;21.60;19.90;;;21.40;99.90;;;;;;6135429;23;20010;-94
2023/05/21 11:42:41;;;;;;;21.67;19.55;;;21.60;99.90;;;;;;5903469;24;20409;-93
2023/05/21 11:45:16;;;;;;;22.25;20.08;;;21.90;99.90;;;;;;5859936;24;20010;-94
2023/05/21 11:47:44;;;;;;;22.25;20.50;;;21.80;99.90;;;;;;5860224;24;20095;-94
2023/05/21 11:50:14;;;;;;;23.30;21.25;;;21.90;99.90;;;;;;5912456;23;20006;-94
2023/05/21 11:52:42;;;;;;;22.98;20.88;;;22.00;99.90;;;;;;5987533;23;20039;-94
2023/05/21 11:55:10;;;;;;;23.70;21.58;;;22.00;99.90;;;;;;5987915;23;20339;-94
2023/05/21 11:57:43;;;;;;;23.13;21.08;;;21.90;99.90;;;;;;5965287;23;20040;-95
2023/05/21 12:00:15;;;;;;;21.77;20.05;;;22.00;99.90;;;;;;5988028;23;20446;-95
2023/05/21 12:06:30;;;;;;;20.25;18.75;;;21.60;99.90;;;;;;6136672;22;20024;-93
2023/05/21 12:09:04;;;;;;;19.40;17.40;;;22.00;99.90;;;;;;6222721;22;20007;-95
2023/05/21 12:11:30;;;;;;;;;;;22.00;99.90;;;;;;6223523;23;20012;-94
2023/05/21 12:13:56;;;;;;;19.38;17.63;;;21.90;99.90;;;;;;6223707;23;19899;-92
2023/05/21 12:16:26;;;;;;;19.20;17.45;;;21.80;99.90;;;;;;6221173;23;20004;-94
2023/05/21 12:18:53;;;;;;;19.50;17.70;;;22.00;99.90;;;;;;6226907;23;20008;-91
2023/05/21 12:21:20;;;;;;;19.45;17.75;;;22.10;99.90;;;;;;6222019;23;20012;-91
2023/05/21 12:23:46;;;;;;;18.95;17.13;;;22.10;99.90;;;;;;6222039;23;20091;-92
2023/05/21 12:26:13;;;;;;;19.70;18.00;;;22.00;99.90;;;;;;6229261;22;19988;-92
2023/05/21 12:28:40;;;;;;;18.83;17.23;;;22.30;99.90;;;;;;6246138;23;20016;-93
2023/05/21 12:31:06;;;;;;;19.77;17.92;;;22.50;99.90;;;;;;6229937;23;20361;-92
2023/05/21 12:33:36;;;;;;;19.80;17.88;;;22.00;99.90;;;;;;6220930;23;20004;-91
2023/05/21 12:36:05;;;;;;;19.92;18.23;;;22.00;99.90;;;;;;6220948;23;20008;-94
2023/05/21 12:38:32;;;;;;;21.45;19.67;;;21.80;99.90;;;;;;6220927;23;20434;-90
2023/05/21 12:41:05;;;;;;;20.98;19.15;;;22.00;99.90;;;;;;6220610;23;20031;-93
2023/05/21 12:43:32;;;;;;;21.10;19.23;;;21.70;99.90;;;;;;6220764;23;20000;-91
2023/05/21 12:45:59;;;;;;;19.88;18.42;;;21.60;99.90;;;;;;6220628;23;20008;-92
2023/05/21 12:48:25;;;;;;;19.67;18.38;;;21.50;99.90;;;;;;6220890;23;20008;-93
2023/05/21 12:50:52;;;;;;;20.73;19.02;;;21.20;99.90;;;;;;6222040;23;20004;-93
2023/05/21 12:53:18;;;;;;;20.73;19.23;;;21.10;99.90;;;;;;6222320;23;20091;-93
2023/05/21 12:55:46;;;;;;;20.40;19.00;;;21.30;99.90;;;;;;6223573;22;20434;-92
2023/05/21 12:58:13;;;;;;;20.60;19.20;;;21.50;99.90;;;;;;6159150;23;20370;-96
2023/05/21 13:00:42;;;;;;;20.60;19.25;;;21.90;99.90;;;;;;6136783;23;20025;-92
2023/05/21 13:03:09;;;;;;;21.30;19.77;;;21.80;99.90;;;;;;6137950;23;20037;-93
2023/05/21 13:05:40;;;;;;;20.00;18.67;;;22.30;99.90;;;;;;6139001;23;20017;-94
2023/05/21 13:08:12;;;;;;;20.27;18.73;;;22.60;99.90;;;;;;6138650;23;20498;-92
2023/05/21 13:10:39;;;;;;;20.92;19.35;;;22.20;99.90;;;;;;6145125;23;20044;-90
2023/05/21 13:13:06;;;;;;;21.15;19.75;;;22.00;99.90;;;;;;6139118;23;20020;-92
2023/05/21 13:15:34;;;;;;;20.35;18.85;;;22.40;99.90;;;;;;6139277;23;20015;-93
2023/05/21 13:18:01;;;;;;;19.98;18.67;;;22.20;99.90;;;;;;6140074;23;20440;-93
2023/05/21 13:20:29;;;;;;;20.73;19.33;;;22.00;99.90;;;;;;6164181;23;20024;-93
2023/05/21 13:22:56;;;;;;;21.00;19.25;;;22.00;99.90;;;;;;6140461;23;20009;-93
2023/05/21 13:25:28;;;;;;;21.40;19.92;;;22.00;99.90;;;;;;6140913;23;20032;-92
2023/05/21 13:27:56;;;;;;;21.55;19.95;;;22.10;99.90;;;;;;6165492;23;20012;-93
2023/05/21 13:30:25;;;;;;;21.45;19.60;;;22.30;99.90;;;;;;6138368;23;20016;-93
2023/05/21 13:32:52;;;;;;;20.77;19.13;;;22.10;99.90;;;;;;6140415;23;20009;-92
2023/05/21 13:35:22;;;;;;;21.52;19.92;;;22.20;99.90;;;;;;6166898;23;20058;-94
2023/05/21 13:37:51;;;;;;;21.15;19.45;;;22.40;99.90;;;;;;6223442;23;20012;-91
2023/05/21 13:40:20;;;;;;;20.17;18.67;;;22.50;99.90;;;;;;6224723;23;20020;-93
2023/05/21 13:42:50;;;;;;;19.75;18.48;;;22.00;99.90;;;;;;6219607;23;20005;-92
2023/05/21 13:45:20;;;;;;;21.33;19.52;;;21.90;99.90;;;;;;6224951;23;20039;-93
2023/05/21 13:47:49;;;;;;;20.73;19.20;;;21.70;99.90;;;;;;6225209;23;20004;-92
2023/05/21 13:50:16;;;;;;;20.42;18.73;;;21.60;99.90;;;;;;6225131;23;20449;-93
2023/05/21 13:52:43;;;;;;;20.92;19.40;;;21.70;99.90;;;;;;6225277;23;20014;-92
2023/05/21 13:55:09;;;;;;;20.60;19.10;;;21.60;99.90;;;;;;6225902;23;20015;-92
2023/05/21 13:57:36;;;;;;;20.00;18.70;;;21.70;99.90;;;;;;6224885;23;20008;-92
2023/05/21 14:00:04;;;;;;;20.75;19.23;;;21.60;99.90;;;;;;6166034;23;20017;-91
2023/05/21 14:02:33;;;;;;;20.65;18.88;;;21.40;99.90;;;;;;6167577;23;20124;-93
2023/05/21 14:05:00;;;;;;;19.83;18.35;;;21.20;99.90;;;;;;6140847;23;20004;-93
2023/05/21 14:13:22;;;;;;;20.47;18.83;;;21.80;99.90;;;;;;6221078;23;20024;-95
2023/05/21 14:16:13;;;;;;;19.90;18.33;;;21.70;99.90;;;;;;6203087;22;20060;-95
2023/05/21 14:21:51;;;;;;;19.80;18.13;;;21.80;99.90;;;;;;6285732;22;20024;-95
2023/05/21 14:24:20;;;;;;;20.27;18.73;;;22.00;99.90;;;;;;6225330;23;20020;-92
2023/05/21 14:26:46;;;;;;;20.73;18.95;;;22.00;99.90;;;;;;6200593;22;20090;-93
2023/05/21 14:29:32;;;;;;;20.75;19.30;;;22.00;99.90;;;;;;6165647;23;20009;-93
2023/05/21 15:04:07;;;;;;;20.33;18.60;;;21.50;99.90;;;;;;6223045;23;20110;-94
2023/05/21 15:06:33;;;;;;;20.60;19.10;;;21.40;99.90;;;;;;6191367;23;20087;-90
2023/05/21 15:08:59;;;;;;;20.75;19.17;;;21.50;99.90;;;;;;6191204;23;20004;-91
2023/05/21 15:11:26;;;;;;;20.65;19.08;;;21.70;99.90;;;;;;6191342;23;20192;-90
2023/05/21 15:13:53;;;;;;;20.45;19.15;;;21.80;99.90;;;;;;6191339;23;20389;-89
2023/05/21 15:16:19;;;;;;;20.63;19.13;;;21.80;99.90;;;;;;6191281;23;20013;-91
2023/05/21 15:18:45;;;;;;;20.92;19.35;;;21.90;99.90;;;;;;6191028;23;20008;-92
2023/05/21 15:21:12;;;;;;;20.65;19.00;;;21.70;99.90;;;;;;6191034;23;20147;-91
2023/05/21 15:23:38;;;;;;;19.88;18.55;;;21.50;99.90;;;;;;6190917;23;20446;-91
2023/05/21 15:26:05;;;;;;;20.08;18.75;;;21.20;99.90;;;;;;6191065;23;20018;-90
2023/05/21 15:28:31;;;;;;;20.42;19.10;;;21.20;99.90;;;;;;6190787;23;20316;-89
2023/05/21 15:31:00;;;;;;;21.10;19.65;;;21.10;99.90;;;;;;6191055;23;20016;-93
2023/05/21 15:33:26;;;;;;;21.60;20.10;;;21.10;99.90;;;;;;6194824;23;20046;-93
2023/05/21 15:35:53;;;;;;;20.90;19.42;;;21.10;99.90;;;;;;6197917;23;20090;-93
2023/05/21 15:38:19;;;;;;;21.17;19.88;;;21.10;99.90;;;;;;6197271;23;20004;-93
2023/05/21 15:40:46;;;;;;;21.00;19.35;;;21.10;99.90;;;;;;6197682;23;20016;-93
2023/05/21 15:43:13;;;;;;;20.58;18.88;;;21.00;99.90;;;;;;6222872;23;20340;-93
2023/05/21 15:45:39;;;;;;;20.77;19.45;;;20.80;99.90;;;;;;6198693;23;20015;-92
2023/05/21 15:48:06;;;;;;;21.40;19.73;;;20.80;99.90;;;;;;6201106;23;20075;-92
2023/05/21 15:50:34;;;;;;;20.85;19.42;;;20.60;99.90;;;;;;6202995;23;19996;-91
2023/05/21 15:53:02;;;;;;;21.45;19.70;;;20.40;99.90;;;;;;6202647;23;20008;-91
2023/05/21 15:55:32;;;;;;;21.20;19.42;;;20.40;99.90;;;;;;6200269;23;19996;-93
2023/05/21 15:57:58;;;;;;;21.98;20.30;;;20.30;99.90;;;;;;6221165;23;20019;-93
2023/05/21 16:00:25;;;;;;;21.60;19.90;;;20.20;99.90;;;;;;6198597;23;20039;-93
2023/05/21 16:02:51;;;;;;;21.77;20.08;;;20.20;99.90;;;;;;6214188;23;20019;-91
2023/05/21 16:05:17;;;;;;;21.52;19.83;;;20.10;99.90;;;;;;6222194;23;20012;-93
2023/05/21 16:07:45;;;;;;;22.13;20.33;;;20.10;99.90;;;;;;6222248;23;20000;-92
2023/05/21 16:10:11;;;;;;;22.70;20.75;;;20.20;99.90;;;;;;6222652;23;20008;-92
2023/05/21 16:12:38;;;;;;;22.42;20.52;;;20.00;99.90;;;;;;6223912;23;20071;-92
2023/05/21 16:15:05;;;;;;;22.35;20.60;;;20.00;99.90;;;;;;6226055;22;20008;-93
2023/05/21 16:17:31;;;;;;;22.75;20.90;;;20.20;99.90;;;;;;6248749;22;20357;-92
2023/05/21 16:19:57;;;;;;;21.65;20.02;;;20.10;99.90;;;;;;6239548;23;20035;-93
2023/05/21 16:22:24;;;;;;;21.42;19.85;;;20.10;99.90;;;;;;6221400;23;20030;-93
2023/05/21 16:24:50;;;;;;;21.52;19.75;;;20.10;99.90;;;;;;6221180;23;20004;-93
2023/05/21 16:27:16;;;;;;;21.63;19.85;;;20.00;99.90;;;;;;6221472;23;20433;-92
2023/05/21 16:29:43;;;;;;;22.02;20.23;;;20.00;99.90;;;;;;6221422;23;20086;-92
2023/05/21 16:32:12;;;;;;;21.40;19.75;;;20.00;99.90;;;;;;6221567;23;20032;-92
2023/05/21 16:34:39;;;;;;;21.75;19.95;;;20.00;99.90;;;;;;6221154;23;20433;-92
2023/05/21 16:37:07;;;;;;;20.50;19.08;;;20.10;99.90;;;;;;6221350;23;20087;-93
2023/05/21 16:39:34;;;;;;;21.63;20.02;;;20.10;99.90;;;;;;6221391;23;20008;-93
2023/05/21 16:42:01;;;;;;;22.02;20.23;;;20.10;99.90;;;;;;6221611;23;20032;-92
2023/05/21 16:44:27;;;;;;;21.58;19.67;;;20.10;99.90;;;;;;6221095;23;20032;-92
2023/05/21 16:46:58;;;;;;;21.65;19.95;;;20.10;99.90;;;;;;6221084;23;20012;-92
2023/05/21 16:49:25;;;;;;;21.35;19.77;;;20.10;99.90;;;;;;6221497;23;20008;-93
2023/05/21 16:51:51;;;;;;;22.48;20.30;;;20.20;99.90;;;;;;6220960;23;20008;-92
2023/05/21 16:54:32;;;;;;;21.48;19.67;;;20.10;99.90;;;;;;6222857;23;20372;-93
2023/05/21 16:57:09;;;;;;;21.10;19.50;;;20.20;99.90;;;;;;6224507;23;20091;-93
2023/05/21 16:59:38;;;;;;;22.33;20.65;;;20.30;99.90;;;;;;6221647;23;20435;-93
2023/05/21 17:02:11;;;;;;;22.25;20.25;;;20.30;99.90;;;;;;6239685;23;20047;-92
2023/05/21 17:04:38;;;;;;;21.70;19.97;;;20.30;99.90;;;;;;6221408;23;20008;-92
2023/05/21 17:07:04;;;;;;;21.13;19.60;;;20.30;99.90;;;;;;6220866;23;20054;-93
2023/05/21 17:09:31;;;;;;;21.27;19.67;;;20.30;99.90;;;;;;6220792;23;20082;-92
2023/05/21 17:11:57;;;;;;;22.77;20.20;;;20.20;99.90;;;;;;6221104;23;20015;-92
2023/05/21 17:14:26;;;;;;;21.55;19.88;;;20.20;99.90;;;;;;6221468;23;20008;-92
2023/05/21 17:16:53;;;;;;;22.52;20.77;;;20.20;99.90;;;;;;6220835;23;20012;-92
2023/05/21 17:19:20;;;;;;;22.48;20.58;;;20.20;99.90;;;;;;6220779;22;20101;-93
2023/05/21 17:21:56;;;;;;;21.95;20.25;;;20.20;99.90;;;;;;6220892;23;20016;-93
2023/05/21 17:24:22;;;;;;;22.67;20.77;;;20.10;99.90;;;;;;6221125;23;20004;-92
2023/05/21 17:26:49;;;;;;;21.83;20.33;;;20.10;99.90;;;;;;6221458;23;20009;-92
2023/05/21 17:29:16;;;;;;;21.60;19.90;;;20.10;99.90;;;;;;6221489;22;20026;-92
2023/05/21 17:31:43;;;;;;;21.70;20.10;;;20.00;99.90;;;;;;6221583;23;20012;-93
2023/05/21 17:34:10;;;;;;;21.48;19.98;;;20.00;99.90;;;;;;6220958;23;20031;-92
2023/05/21 17:36:37;;;;;;;21.90;20.15;;;19.90;99.90;;;;;;6221558;23;20011;-93
2023/05/21 17:39:03;;;;;;;22.10;20.40;;;19.90;99.90;;;;;;6222506;23;20004;-92
2023/05/21 17:41:30;;;;;;;22.73;20.92;;;19.80;99.90;;;;;;6221573;23;20020;-92
2023/05/21 17:43:56;;;;;;;22.15;20.58;;;19.80;99.90;;;;;;6220863;23;20426;-92
2023/05/21 17:46:23;;;;;;;22.42;20.50;;;19.70;99.90;;;;;;6220822;23;20008;-92
2023/05/21 17:48:50;;;;;;;21.80;19.98;;;19.70;99.90;;;;;;6221121;23;20008;-92
2023/05/21 17:51:16;;;;;;;22.35;20.70;;;19.60;99.90;;;;;;6222107;23;20004;-92
2023/05/21 17:53:42;;;;;;;21.75;20.20;;;19.60;99.90;;;;;;6222556;23;20041;-92
2023/05/21 17:56:12;;;;;;;21.55;19.63;;;19.50;99.90;;;;;;6222422;23;20019;-92
2023/05/21 17:58:38;;;;;;;20.88;19.35;;;19.50;99.90;;;;;;6222688;23;20000;-93
2023/05/21 18:01:05;;;;;;;20.80;19.13;;;19.50;99.90;;;;;;6223058;23;20091;-92
2023/05/21 18:03:32;;;;;;;21.38;19.58;;;19.40;99.90;;;;;;6222437;23;20020;-92
2023/05/21 18:05:58;;;;;;;21.20;19.35;;;19.40;99.90;;;;;;6233374;22;19993;-91
2023/05/21 18:08:25;;;;;;;21.35;19.75;;;19.40;99.90;;;;;;6245009;23;20004;-92
2023/05/21 18:10:52;;;;;;;21.20;19.50;;;19.40;99.90;;;;;;6229439;22;20083;-92
2023/05/21 18:13:18;;;;;;;21.08;19.52;;;19.40;99.90;;;;;;6222496;23;20011;-92
2023/05/21 18:15:45;;;;;;;21.33;19.83;;;19.30;99.90;;;;;;6221778;23;20019;-92
2023/05/21 18:18:16;;;;;;;21.42;19.65;;;19.40;99.90;;;;;;6197461;23;20023;-93
2023/05/21 18:20:49;;;;;;;20.85;19.27;;;19.40;99.90;;;;;;6222108;23;20016;-92
2023/05/21 18:23:16;;;;;;;21.40;19.75;;;19.40;99.90;;;;;;6222311;23;20014;-92
2023/05/21 18:25:43;;;;;;;20.98;19.42;;;19.40;99.90;;;;;;6222089;23;20015;-92
2023/05/21 18:28:10;;;;;;;22.25;20.35;;;19.40;99.90;;;;;;6224436;23;20008;-93
2023/05/21 18:30:36;;;;;;;20.85;18.90;;;19.40;99.90;;;;;;6226606;23;20012;-92
2023/05/21 18:33:03;;;;;;;20.33;18.73;;;19.50;99.90;;;;;;6224159;23;20083;-93
2023/05/21 18:35:30;;;;;;;19.75;18.20;;;19.40;99.90;;;;;;6222806;23;20012;-94
2023/05/21 18:37:57;;;;;;;20.02;18.40;;;19.50;99.90;;;;;;6223437;23;20307;-94
2023/05/21 18:40:25;;;;;;;19.50;17.77;;;19.40;99.90;;;;;;6224667;23;20391;-93
2023/05/21 18:42:52;;;;;;;19.42;17.83;;;19.40;99.90;;;;;;6222771;23;20027;-93
2023/05/21 18:45:19;;;;;;;19.27;17.80;;;19.30;99.90;;;;;;6222177;23;20086;-93
2023/05/21 18:48:47;;;;;;;19.50;17.80;;;19.20;99.90;;;;;;6223450;23;20005;-94
2023/05/21 18:51:14;;;;;;;18.98;17.17;;;19.10;99.90;;;;;;6220755;23;20070;-93
2023/05/21 18:53:40;;;;;;;19.98;18.08;;;19.00;99.90;;;;;;6223392;23;20437;-93
2023/05/21 18:56:08;;;;;;;20.05;17.75;;;18.80;99.90;;;;;;6225295;23;20330;-93
2023/05/21 18:58:35;;;;;;;19.98;17.90;;;18.70;99.90;;;;;;6221686;23;20005;-93
2023/05/21 19:01:02;;;;;;;19.88;16.77;;;18.60;99.90;;;;;;6221290;23;20012;-93
2023/05/21 19:03:30;;;;;;;17.75;16.15;;;18.50;99.90;;;;;;6221559;23;20016;-93
2023/05/21 19:05:57;;;;;;;17.30;15.63;;;18.50;99.90;;;;;;6221679;23;20019;-93
2023/05/21 19:08:23;;;;;;;16.30;14.98;;;18.40;99.90;;;;;;6222054;23;20015;-93
2023/05/21 19:10:53;;;;;;;16.50;15.10;;;18.30;99.90;;;;;;6221482;23;20012;-93
2023/05/21 19:13:20;;;;;;;16.20;14.90;;;18.10;99.90;;;;;;6221609;23;20042;-93
2023/05/21 19:15:47;;;;;;;16.52;14.70;;;18.00;99.90;;;;;;6221431;23;20015;-93
2023/05/21 19:18:15;;;;;;;16.33;14.70;;;17.90;99.90;;;;;;6221353;23;20004;-93
2023/05/21 19:20:42;;;;;;;16.23;14.80;;;17.80;99.90;;;;;;6223314;23;20012;-94
2023/05/21 19:23:09;;;;;;;17.45;15.65;;;17.80;99.90;;;;;;6224311;23;20088;-93
2023/05/21 19:25:37;;;;;;;17.00;15.35;;;17.80;99.90;;;;;;6222066;23;20005;-93
2023/05/21 19:28:04;;;;;;;15.75;14.15;;;17.80;99.90;;;;;;6221535;23;20032;-94
2023/05/21 19:30:33;;;;;;;15.77;14.02;;;17.70;99.90;;;;;;6221429;23;20023;-94
2023/05/21 19:33:00;;;;;;;16.33;14.55;;;17.70;99.90;;;;;;6221401;23;20091;-94
2023/05/21 19:35:26;;;;;;;16.23;14.07;;;17.60;99.90;;;;;;6221764;23;20032;-94
2023/05/21 19:37:57;;;;;;;15.30;12.75;;;17.60;99.90;;;;;;6226689;23;20015;-95
2023/05/21 19:40:35;;;;;;;16.35;14.35;;;17.60;99.90;;;;;;6226725;23;20027;-95
2023/05/21 19:43:02;;;;;;;20.30;13.73;;;17.50;99.90;;;;;;6224665;23;20007;-93
2023/05/21 19:45:52;;;;;;;15.15;12.63;;;17.50;99.90;;;;;;6225886;23;20008;-94
2023/05/21 19:48:23;;;;;;;15.02;13.38;;;17.40;99.90;;;;;;6225188;23;20011;-94
2023/05/21 19:50:58;;;;;;;14.75;13.23;;;17.40;99.90;;;;;;6222649;23;20430;-93
2023/05/21 19:53:55;;;;;;;17.17;13.52;;;17.40;99.90;;;;;;6224057;22;20004;-95
2023/05/21 20:01:44;;;;;;;;;;;;;;;;;;;;;
2023/05/21 20:32:18;;;;;;;15.15;13.75;;;17.30;99.90;;;;;;6278133;22;20023;-93
2023/05/21 20:34:47;;;;;;;15.35;13.40;;;17.30;99.90;;;;;;6044360;23;20019;-92
2023/05/21 20:37:14;;;;;;;16.17;13.07;;;17.40;99.90;;;;;;6043877;23;20026;-92
2023/05/21 20:39:44;;;;;;;14.60;13.20;;;17.40;99.90;;;;;;6049354;23;20492;-93
2023/05/21 20:42:13;;;;;;;16.17;14.48;;;17.40;99.90;;;;;;6049350;23;20441;-92
2023/05/21 20:44:40;;;;;;;17.13;14.27;;;17.40;99.90;;;;;;6048224;23;20006;-93
2023/05/21 20:47:07;;;;;;;17.13;13.57;;;17.50;99.90;;;;;;6048505;23;20412;-93
2023/05/21 20:49:33;;;;;;;15.82;13.98;;;17.50;99.90;;;;;;6048481;23;20045;-92
2023/05/21 20:52:00;;;;;;;14.88;13.38;;;17.50;99.90;;;;;;6048942;23;20066;-93
2023/05/21 20:54:29;;;;;;;21.83;13.35;;;17.50;99.90;;;;;;6048334;23;20038;-92
2023/05/21 20:57:08;;;;;;;14.68;12.98;;;17.40;99.90;;;;;;6048410;23;20014;-93
2023/05/21 20:59:34;;;;;;;15.32;12.57;;;17.40;99.90;;;;;;6048135;23;20441;-93
2023/05/21 21:02:01;;;;;;;16.02;12.20;;;17.40;99.90;;;;;;6049097;23;20010;-92
2023/05/21 21:04:27;;;;;;;20.08;12.18;;;17.40;99.90;;;;;;6049120;23;20038;-93
2023/05/21 21:06:54;;;;;;;19.48;12.60;;;17.40;99.90;;;;;;6049224;23;20491;-93
2023/05/21 21:09:20;;;;;;;16.83;13.20;;;17.40;99.90;;;;;;6048345;23;20007;-92
2023/05/21 21:11:49;;;;;;;16.85;12.98;;;17.30;99.90;;;;;;6191421;22;20000;-93
2023/05/21 21:14:16;;;;;;;17.17;12.85;;;17.30;99.90;;;;;;6225887;22;20008;-95
2023/05/21 21:16:42;;;;;;;16.75;13.48;;;17.30;99.90;;;;;;6225647;22;20004;-93
2023/05/21 21:19:09;;;;;;;16.25;13.15;;;17.30;99.90;;;;;;6225458;22;20012;-93
2023/05/21 21:21:35;;;;;;;17.50;13.40;;;17.30;99.90;;;;;;6225770;22;20019;-93
2023/05/21 21:24:02;;;;;;;18.38;12.10;;;17.20;99.90;;;;;;6226455;22;20031;-92
2023/05/21 21:26:28;;;;;;;16.27;13.27;;;17.20;99.90;;;;;;6227429;22;20004;-93
2023/05/21 21:28:55;;;;;;;16.10;12.85;;;17.20;99.90;;;;;;6227593;22;20520;-93
2023/05/21 21:31:21;;;;;;;15.27;12.65;;;17.10;99.90;;;;;;6227007;22;20153;-93
2023/05/21 21:33:48;;;;;;;22.15;13.00;;;17.10;99.90;;;;;;6228584;22;20071;-94
2023/05/21 21:55:41;;;;;;;18.98;13.25;;;17.00;99.90;;;;;;6254042;22;20021;-94
2023/05/21 21:58:20;;;;;;;17.00;12.73;;;16.90;99.90;;;;;;6199741;23;20004;-95
2023/05/21 22:01:05;;;;;;;22.48;13.02;;;16.90;99.90;;;;;;6202927;23;20020;-94
2023/05/21 22:03:33;;;;;;;18.40;12.95;;;17.00;99.90;;;;;;6198316;23;20008;-94
2023/05/21 22:06:00;;;;;;;18.45;12.63;;;16.90;99.90;;;;;;6200504;23;20053;-95
2023/05/21 22:08:27;;;;;;;22.35;12.55;;;16.90;99.90;;;;;;6198523;23;20054;-94
2023/05/21 22:10:54;;;;;;;17.67;12.35;;;17.00;99.90;;;;;;6198385;23;20012;-95
2023/05/21 22:13:29;;;;;;;22.63;13.65;;;17.00;99.90;;;;;;6197530;23;20311;-94
2023/05/21 22:16:00;;;;;;;19.08;13.10;;;16.90;99.90;;;;;;6198099;23;20008;-94
2023/05/21 22:18:27;;;;;;;20.20;13.75;;;16.90;99.90;;;;;;6199594;23;20004;-94
2023/05/21 22:20:54;;;;;;;22.70;13.73;;;16.90;99.90;;;;;;6201610;23;20027;-95
2023/05/21 22:23:21;;;;;;;21.23;13.20;;;16.90;99.90;;;;;;6201751;23;20008;-94
2023/05/21 22:25:47;;;;;;;19.60;12.82;;;16.80;99.90;;;;;;6203388;23;20043;-93
2023/05/21 22:28:14;;;;;;;18.23;12.77;;;16.80;99.90;;;;;;6200677;23;20008;-94
2023/05/21 22:30:40;;;;;;;23.80;13.00;;;16.80;99.90;;;;;;6200588;23;20090;-93
2023/05/21 22:33:07;;;;;;;15.82;12.85;;;16.80;99.90;;;;;;6200932;23;20004;-94
2023/05/21 22:35:33;;;;;;;23.05;13.57;;;16.80;99.90;;;;;;6200201;23;20356;-95
2023/05/21 22:38:01;;;;;;;22.05;14.27;;;16.80;99.90;;;;;;6198117;23;20050;-93
2023/05/21 22:40:54;;;;;;;20.98;13.43;;;16.80;99.90;;;;;;6202048;23;20016;-94
2023/05/21 22:43:38;;;;;;;21.13;13.50;;;16.80;99.90;;;;;;6229171;23;20382;-94
2023/05/21 22:46:05;;;;;;;21.25;13.02;;;16.70;99.90;;;;;;6197789;23;20016;-94
2023/05/21 22:48:33;;;;;;;17.35;13.23;;;16.70;99.90;;;;;;6197776;23;20000;-94
2023/05/21 22:51:00;;;;;;;21.52;13.70;;;16.70;99.90;;;;;;6197833;23;20019;-94
2023/05/21 22:53:26;;;;;;;23.45;13.40;;;16.70;99.90;;;;;;6198988;23;20090;-94
2023/05/21 22:55:53;;;;;;;18.73;12.57;;;16.70;99.90;;;;;;6199730;23;20008;-93
2023/05/21 22:58:19;;;;;;;21.23;13.55;;;16.70;99.90;;;;;;6198206;23;20004;-93
2023/05/21 23:00:46;;;;;;;22.92;13.20;;;16.70;99.90;;;;;;6196933;23;20043;-94
2023/05/21 23:03:13;;;;;;;17.63;11.63;;;16.70;99.90;;;;;;6199307;23;20008;-94
2023/05/21 23:05:39;;;;;;;21.63;12.70;;;16.70;99.90;;;;;;6199800;23;20071;-94
2023/05/21 23:08:06;;;;;;;23.27;14.35;;;16.80;99.90;;;;;;6224451;23;20086;-94
2023/05/21 23:10:34;;;;;;;17.77;12.77;;;16.80;99.90;;;;;;6197191;23;20008;-94
2023/05/21 23:13:00;;;;;;;18.38;13.38;;;16.80;99.90;;;;;;6196808;23;20000;-93
2023/05/21 23:15:28;;;;;;;21.83;13.27;;;16.90;99.90;;;;;;6196894;23;20015;-94
2023/05/21 23:17:59;;;;;;;19.67;13.95;;;16.90;99.90;;;;;;6196758;22;20005;-94
2023/05/21 23:20:26;;;;;;;21.17;13.82;;;16.90;99.90;;;;;;6196628;23;20446;-94
2023/05/21 23:22:53;;;;;;;28.60;13.52;;;16.90;99.90;;;;;;6196437;23;20004;-94
2023/05/21 23:25:20;;;;;;;23.15;13.77;;;16.90;99.90;;;;;;6196794;23;20008;-94
2023/05/21 23:27:46;;;;;;;24.52;13.95;;;16.90;99.90;;;;;;6197412;23;20004;-95
2023/05/21 23:30:13;;;;;;;23.08;13.80;;;16.90;99.90;;;;;;6197199;23;20008;-95
2023/05/21 23:32:39;;;;;;;27.98;14.52;;;16.90;99.90;;;;;;6198689;23;20069;-94
2023/05/21 23:35:08;;;;;;;22.15;13.85;;;16.90;99.90;;;;;;6220807;22;20040;-93
2023/05/21 23:37:34;;;;;;;24.30;13.98;;;16.90;99.90;;;;;;6219383;23;20031;-94
2023/05/21 23:40:01;;;;;;;24.65;13.55;;;16.90;99.90;;;;;;6196723;23;20016;-94
2023/05/21 23:42:27;;;;;;;23.65;13.50;;;16.90;99.90;;;;;;6196815;23;20000;-94
2023/05/21 23:44:54;;;;;;;19.27;13.73;;;16.90;99.90;;;;;;6196838;22;20008;-95
2023/05/21 23:47:21;;;;;;;21.50;13.57;;;16.90;99.90;;;;;;6196303;23;20099;-94
2023/05/21 23:49:47;;;;;;;25.23;13.57;;;16.80;99.90;;;;;;6196400;23;20062;-95
2023/05/21 23:52:17;;;;;;;20.63;14.07;;;16.80;99.90;;;;;;6196551;23;20440;-94
2023/05/21 23:54:44;;;;;;;19.15;14.00;;;16.80;99.90;;;;;;6196254;23;20497;-94
2023/05/21 23:57:12;;;;;;;29.08;13.68;;;16.80;99.90;;;;;;6196809;23;20004;-94
2023/05/21 23:59:40;;;;;;;25.17;13.80;;;16.80;99.90;;;;;;6173281;23;20026;-94
